sensor_id;sensor_type;location;lat;lon;timestamp;P1;durP1;ratioP1;P2;durP2;ratioP2
59424;SDS011;45231;44.826;20.312;2023-05-19T00:01:05;25.55;;;14.98;;
59424;SDS011;45231;44.826;20.312;2023-05-19T00:03:32;23.15;;;14.48;;
59424;SDS011;45231;44.826;20.312;2023-05-19T00:08:24;24.20;;;15.27;;
59424;SDS011;45231;44.826;20.312;2023-05-19T00:10:50;26.17;;;15.75;;
59424;SDS011;45231;44.826;20.312;2023-05-19T00:13:16;26.27;;;15.23;;
59424;SDS011;45231;44.826;20.312;2023-05-19T00:15:42;24.85;;;15.18;;
59424;SDS011;45231;44.826;20.312;2023-05-19T00:18:09;22.75;;;12.65;;
59424;SDS011;45231;44.826;20.312;2023-05-19T00:20:37;21.33;;;14.68;;
59424;SDS011;45231;44.826;20.312;2023-05-19T00:23:03;25.13;;;14.68;;
59424;SDS011;45231;44.826;20.312;2023-05-19T00:25:29;23.42;;;14.82;;
59424;SDS011;45231;44.826;20.312;2023-05-19T00:27:55;24.63;;;15.35;;
59424;SDS011;45231;44.826;20.312;2023-05-19T00:30:23;28.88;;;17.75;;
59424;SDS011;45231;44.826;20.312;2023-05-19T00:32:50;26.80;;;15.13;;
59424;SDS011;45231;44.826;20.312;2023-05-19T00:35:16;26.60;;;16.13;;
59424;SDS011;45231;44.826;20.312;2023-05-19T00:37:42;23.45;;;15.57;;
59424;SDS011;45231;44.826;20.312;2023-05-19T00:40:08;25.13;;;15.43;;
59424;SDS011;45231;44.826;20.312;2023-05-19T00:42:34;27.02;;;15.43;;
59424;SDS011;45231;44.826;20.312;2023-05-19T00:45:01;27.70;;;15.55;;
59424;SDS011;45231;44.826;20.312;2023-05-19T00:47:27;27.83;;;15.55;;
59424;SDS011;45231;44.826;20.312;2023-05-19T00:49:53;27.95;;;14.85;;
59424;SDS011;45231;44.826;20.312;2023-05-19T00:52:19;25.23;;;15.18;;
59424;SDS011;45231;44.826;20.312;2023-05-19T00:54:45;26.45;;;15.48;;
59424;SDS011;45231;44.826;20.312;2023-05-19T00:57:12;28.50;;;15.43;;
59424;SDS011;45231;44.826;20.312;2023-05-19T00:59:38;23.42;;;14.60;;
59424;SDS011;45231;44.826;20.312;2023-05-19T01:02:04;27.40;;;15.43;;
59424;SDS011;45231;44.826;20.312;2023-05-19T01:04:30;25.30;;;14.93;;
59424;SDS011;45231;44.826;20.312;2023-05-19T01:06:59;25.50;;;15.40;;
59424;SDS011;45231;44.826;20.312;2023-05-19T01:09:25;28.13;;;16.35;;
59424;SDS011;45231;44.826;20.312;2023-05-19T01:11:51;30.00;;;16.40;;
59424;SDS011;45231;44.826;20.312;2023-05-19T01:14:18;29.50;;;17.10;;
59424;SDS011;45231;44.826;20.312;2023-05-19T01:19:34;26.40;;;15.50;;
59424;SDS011;45231;44.826;20.312;2023-05-19T01:27:55;26.38;;;14.75;;
59424;SDS011;45231;44.826;20.312;2023-05-19T01:30:29;27.80;;;15.77;;
59424;SDS011;45231;44.826;20.312;2023-05-19T01:32:59;26.13;;;15.73;;
59424;SDS011;45231;44.826;20.312;2023-05-19T01:35:25;26.45;;;15.32;;
59424;SDS011;45231;44.826;20.312;2023-05-19T01:37:58;25.20;;;14.35;;
59424;SDS011;45231;44.826;20.312;2023-05-19T01:40:25;27.75;;;15.50;;
59424;SDS011;45231;44.826;20.312;2023-05-19T01:42:53;26.45;;;15.98;;
59424;SDS011;45231;44.826;20.312;2023-05-19T01:45:20;27.95;;;16.50;;
59424;SDS011;45231;44.826;20.312;2023-05-19T01:47:47;26.65;;;15.75;;
59424;SDS011;45231;44.826;20.312;2023-05-19T01:50:14;28.65;;;15.27;;
59424;SDS011;45231;44.826;20.312;2023-05-19T01:52:40;28.20;;;15.63;;
59424;SDS011;45231;44.826;20.312;2023-05-19T01:55:06;28.15;;;15.60;;
59424;SDS011;45231;44.826;20.312;2023-05-19T02:00:03;25.77;;;15.50;;
59424;SDS011;45231;44.826;20.312;2023-05-19T02:05:12;25.17;;;14.73;;
59424;SDS011;45231;44.826;20.312;2023-05-19T02:07:43;25.83;;;14.80;;
59424;SDS011;45231;44.826;20.312;2023-05-19T02:10:21;26.42;;;14.80;;
59424;SDS011;45231;44.826;20.312;2023-05-19T02:12:48;25.17;;;14.80;;
59424;SDS011;45231;44.826;20.312;2023-05-19T02:15:17;25.88;;;15.10;;
59424;SDS011;45231;44.826;20.312;2023-05-19T02:17:45;28.70;;;16.50;;
59424;SDS011;45231;44.826;20.312;2023-05-19T02:20:15;25.00;;;13.70;;
59424;SDS011;45231;44.826;20.312;2023-05-19T02:22:42;27.23;;;15.40;;
59424;SDS011;45231;44.826;20.312;2023-05-19T02:25:08;28.73;;;14.07;;
59424;SDS011;45231;44.826;20.312;2023-05-19T02:27:35;26.20;;;15.02;;
59424;SDS011;45231;44.826;20.312;2023-05-19T02:30:05;26.40;;;14.43;;
59424;SDS011;45231;44.826;20.312;2023-05-19T02:32:32;29.20;;;15.90;;
59424;SDS011;45231;44.826;20.312;2023-05-19T02:34:58;30.73;;;16.35;;
59424;SDS011;45231;44.826;20.312;2023-05-19T02:37:24;28.75;;;15.55;;
59424;SDS011;45231;44.826;20.312;2023-05-19T02:39:52;27.30;;;14.30;;
59424;SDS011;45231;44.826;20.312;2023-05-19T02:42:18;30.23;;;16.80;;
59424;SDS011;45231;44.826;20.312;2023-05-19T02:44:44;26.55;;;15.25;;
59424;SDS011;45231;44.826;20.312;2023-05-19T02:47:11;32.65;;;17.35;;
59424;SDS011;45231;44.826;20.312;2023-05-19T02:49:37;33.70;;;17.33;;
59424;SDS011;45231;44.826;20.312;2023-05-19T02:52:04;33.22;;;17.65;;
59424;SDS011;45231;44.826;20.312;2023-05-19T02:54:30;30.40;;;16.75;;
59424;SDS011;45231;44.826;20.312;2023-05-19T02:56:57;29.80;;;16.60;;
59424;SDS011;45231;44.826;20.312;2023-05-19T02:59:23;29.63;;;16.73;;
59424;SDS011;45231;44.826;20.312;2023-05-19T03:01:57;29.02;;;16.13;;
59424;SDS011;45231;44.826;20.312;2023-05-19T03:04:24;35.30;;;16.85;;
59424;SDS011;45231;44.826;20.312;2023-05-19T03:06:50;30.20;;;17.02;;
59424;SDS011;45231;44.826;20.312;2023-05-19T03:09:18;30.33;;;16.40;;
59424;SDS011;45231;44.826;20.312;2023-05-19T03:11:44;31.15;;;16.85;;
59424;SDS011;45231;44.826;20.312;2023-05-19T03:14:10;31.35;;;16.42;;
59424;SDS011;45231;44.826;20.312;2023-05-19T03:16:38;32.40;;;15.88;;
59424;SDS011;45231;44.826;20.312;2023-05-19T03:19:07;30.98;;;16.83;;
59424;SDS011;45231;44.826;20.312;2023-05-19T03:24:00;31.52;;;17.33;;
59424;SDS011;45231;44.826;20.312;2023-05-19T03:26:26;34.38;;;17.08;;
59424;SDS011;45231;44.826;20.312;2023-05-19T03:28:53;33.30;;;16.83;;
59424;SDS011;45231;44.826;20.312;2023-05-19T03:31:19;32.55;;;16.33;;
59424;SDS011;45231;44.826;20.312;2023-05-19T03:33:45;32.08;;;16.75;;
59424;SDS011;45231;44.826;20.312;2023-05-19T03:36:11;32.63;;;16.88;;
59424;SDS011;45231;44.826;20.312;2023-05-19T03:38:37;32.60;;;16.65;;
59424;SDS011;45231;44.826;20.312;2023-05-19T03:41:03;28.92;;;16.25;;
59424;SDS011;45231;44.826;20.312;2023-05-19T03:43:29;30.27;;;16.50;;
59424;SDS011;45231;44.826;20.312;2023-05-19T03:45:56;31.10;;;17.38;;
59424;SDS011;45231;44.826;20.312;2023-05-19T03:48:22;36.90;;;18.67;;
59424;SDS011;45231;44.826;20.312;2023-05-19T03:50:48;36.58;;;18.10;;
59424;SDS011;45231;44.826;20.312;2023-05-19T03:53:14;33.25;;;17.83;;
59424;SDS011;45231;44.826;20.312;2023-05-19T03:55:40;31.60;;;16.05;;
59424;SDS011;45231;44.826;20.312;2023-05-19T03:58:08;33.60;;;16.23;;
59424;SDS011;45231;44.826;20.312;2023-05-19T04:00:34;33.35;;;17.38;;
59424;SDS011;45231;44.826;20.312;2023-05-19T04:03:00;36.53;;;17.40;;
59424;SDS011;45231;44.826;20.312;2023-05-19T04:05:26;40.33;;;18.70;;
59424;SDS011;45231;44.826;20.312;2023-05-19T04:07:52;40.37;;;17.93;;
59424;SDS011;45231;44.826;20.312;2023-05-19T04:10:18;36.40;;;18.47;;
59424;SDS011;45231;44.826;20.312;2023-05-19T04:12:44;36.13;;;18.25;;
59424;SDS011;45231;44.826;20.312;2023-05-19T04:15:11;48.25;;;18.80;;
59424;SDS011;45231;44.826;20.312;2023-05-19T04:17:38;42.70;;;19.65;;
59424;SDS011;45231;44.826;20.312;2023-05-19T04:20:04;45.10;;;19.40;;
59424;SDS011;45231;44.826;20.312;2023-05-19T04:22:31;51.40;;;19.15;;
59424;SDS011;45231;44.826;20.312;2023-05-19T04:24:57;45.65;;;18.90;;
59424;SDS011;45231;44.826;20.312;2023-05-19T04:27:24;43.72;;;17.80;;
59424;SDS011;45231;44.826;20.312;2023-05-19T04:29:52;40.38;;;18.77;;
59424;SDS011;45231;44.826;20.312;2023-05-19T04:34:44;39.80;;;16.15;;
59424;SDS011;45231;44.826;20.312;2023-05-19T04:37:11;37.80;;;17.27;;
59424;SDS011;45231;44.826;20.312;2023-05-19T04:39:40;41.20;;;18.23;;
59424;SDS011;45231;44.826;20.312;2023-05-19T04:42:08;43.58;;;20.08;;
59424;SDS011;45231;44.826;20.312;2023-05-19T04:44:35;38.95;;;18.48;;
59424;SDS011;45231;44.826;20.312;2023-05-19T04:47:02;41.25;;;18.67;;
59424;SDS011;45231;44.826;20.312;2023-05-19T04:49:30;39.95;;;19.08;;
59424;SDS011;45231;44.826;20.312;2023-05-19T04:51:56;44.33;;;18.20;;
59424;SDS011;45231;44.826;20.312;2023-05-19T04:54:22;40.30;;;17.70;;
59424;SDS011;45231;44.826;20.312;2023-05-19T04:56:48;35.78;;;16.55;;
59424;SDS011;45231;44.826;20.312;2023-05-19T04:59:14;32.90;;;16.58;;
59424;SDS011;45231;44.826;20.312;2023-05-19T05:01:40;32.92;;;16.35;;
59424;SDS011;45231;44.826;20.312;2023-05-19T05:04:06;35.40;;;16.42;;
59424;SDS011;45231;44.826;20.312;2023-05-19T05:06:33;35.10;;;17.70;;
59424;SDS011;45231;44.826;20.312;2023-05-19T05:09:02;36.35;;;17.15;;
59424;SDS011;45231;44.826;20.312;2023-05-19T05:11:28;34.97;;;16.75;;
59424;SDS011;45231;44.826;20.312;2023-05-19T05:13:55;32.88;;;16.40;;
59424;SDS011;45231;44.826;20.312;2023-05-19T05:16:22;33.63;;;16.73;;
59424;SDS011;45231;44.826;20.312;2023-05-19T05:18:48;29.80;;;15.07;;
59424;SDS011;45231;44.826;20.312;2023-05-19T05:21:15;29.58;;;15.65;;
59424;SDS011;45231;44.826;20.312;2023-05-19T05:23:41;31.60;;;15.18;;
59424;SDS011;45231;44.826;20.312;2023-05-19T05:26:27;27.05;;;13.65;;
59424;SDS011;45231;44.826;20.312;2023-05-19T05:28:54;28.90;;;13.98;;
59424;SDS011;45231;44.826;20.312;2023-05-19T05:31:20;28.23;;;14.40;;
59424;SDS011;45231;44.826;20.312;2023-05-19T05:33:46;29.73;;;14.77;;
59424;SDS011;45231;44.826;20.312;2023-05-19T05:36:12;28.75;;;14.48;;
59424;SDS011;45231;44.826;20.312;2023-05-19T05:38:39;30.58;;;15.70;;
59424;SDS011;45231;44.826;20.312;2023-05-19T05:41:05;24.23;;;12.68;;
59424;SDS011;45231;44.826;20.312;2023-05-19T05:43:31;23.85;;;12.52;;
59424;SDS011;45231;44.826;20.312;2023-05-19T05:45:57;25.35;;;12.60;;
59424;SDS011;45231;44.826;20.312;2023-05-19T05:48:23;23.85;;;12.93;;
59424;SDS011;45231;44.826;20.312;2023-05-19T05:50:49;26.17;;;13.10;;
59424;SDS011;45231;44.826;20.312;2023-05-19T05:53:19;28.15;;;13.30;;
59424;SDS011;45231;44.826;20.312;2023-05-19T05:55:46;26.85;;;13.80;;
59424;SDS011;45231;44.826;20.312;2023-05-19T05:58:12;25.55;;;13.50;;
59424;SDS011;45231;44.826;20.312;2023-05-19T06:00:39;26.25;;;13.00;;
59424;SDS011;45231;44.826;20.312;2023-05-19T06:03:07;25.38;;;12.60;;
59424;SDS011;45231;44.826;20.312;2023-05-19T06:05:34;25.05;;;13.43;;
59424;SDS011;45231;44.826;20.312;2023-05-19T06:08:01;25.67;;;13.27;;
59424;SDS011;45231;44.826;20.312;2023-05-19T06:10:27;26.90;;;12.90;;
59424;SDS011;45231;44.826;20.312;2023-05-19T06:12:53;22.15;;;12.40;;
59424;SDS011;45231;44.826;20.312;2023-05-19T06:15:20;31.08;;;14.02;;
59424;SDS011;45231;44.826;20.312;2023-05-19T06:17:46;27.58;;;13.60;;
59424;SDS011;45231;44.826;20.312;2023-05-19T06:20:12;28.92;;;13.73;;
59424;SDS011;45231;44.826;20.312;2023-05-19T06:22:38;29.17;;;14.27;;
59424;SDS011;45231;44.826;20.312;2023-05-19T06:25:05;27.85;;;12.80;;
59424;SDS011;45231;44.826;20.312;2023-05-19T06:27:33;28.52;;;13.70;;
59424;SDS011;45231;44.826;20.312;2023-05-19T06:29:59;19.27;;;11.02;;
59424;SDS011;45231;44.826;20.312;2023-05-19T06:32:25;22.02;;;11.93;;
59424;SDS011;45231;44.826;20.312;2023-05-19T06:34:53;18.63;;;11.05;;
59424;SDS011;45231;44.826;20.312;2023-05-19T06:37:23;19.30;;;11.27;;
59424;SDS011;45231;44.826;20.312;2023-05-19T06:39:50;20.77;;;11.80;;
59424;SDS011;45231;44.826;20.312;2023-05-19T06:42:17;19.00;;;11.90;;
59424;SDS011;45231;44.826;20.312;2023-05-19T06:44:46;18.08;;;10.40;;
59424;SDS011;45231;44.826;20.312;2023-05-19T06:47:12;19.35;;;12.35;;
59424;SDS011;45231;44.826;20.312;2023-05-19T06:49:39;22.73;;;11.70;;
59424;SDS011;45231;44.826;20.312;2023-05-19T06:52:05;21.20;;;12.30;;
59424;SDS011;45231;44.826;20.312;2023-05-19T06:54:31;23.00;;;12.98;;
59424;SDS011;45231;44.826;20.312;2023-05-19T06:56:57;24.15;;;13.15;;
59424;SDS011;45231;44.826;20.312;2023-05-19T06:59:23;25.20;;;13.35;;
59424;SDS011;45231;44.826;20.312;2023-05-19T07:01:49;19.98;;;11.57;;
59424;SDS011;45231;44.826;20.312;2023-05-19T07:04:15;29.02;;;15.65;;
59424;SDS011;45231;44.826;20.312;2023-05-19T07:06:41;29.48;;;14.85;;
59424;SDS011;45231;44.826;20.312;2023-05-19T07:09:07;25.98;;;15.00;;
59424;SDS011;45231;44.826;20.312;2023-05-19T07:11:33;25.20;;;14.07;;
59424;SDS011;45231;44.826;20.312;2023-05-19T07:13:59;25.60;;;14.25;;
59424;SDS011;45231;44.826;20.312;2023-05-19T07:16:25;23.35;;;13.00;;
59424;SDS011;45231;44.826;20.312;2023-05-19T07:18:51;26.45;;;14.77;;
59424;SDS011;45231;44.826;20.312;2023-05-19T07:21:18;28.60;;;14.30;;
59424;SDS011;45231;44.826;20.312;2023-05-19T07:23:44;27.55;;;14.95;;
59424;SDS011;45231;44.826;20.312;2023-05-19T07:26:10;23.20;;;13.98;;
59424;SDS011;45231;44.826;20.312;2023-05-19T07:28:36;22.67;;;13.82;;
59424;SDS011;45231;44.826;20.312;2023-05-19T07:31:02;21.67;;;13.35;;
59424;SDS011;45231;44.826;20.312;2023-05-19T07:33:28;20.15;;;12.48;;
59424;SDS011;45231;44.826;20.312;2023-05-19T07:35:54;23.10;;;13.68;;
59424;SDS011;45231;44.826;20.312;2023-05-19T07:38:20;22.13;;;13.60;;
59424;SDS011;45231;44.826;20.312;2023-05-19T07:40:46;23.27;;;15.07;;
59424;SDS011;45231;44.826;20.312;2023-05-19T07:43:12;24.58;;;15.25;;
59424;SDS011;45231;44.826;20.312;2023-05-19T07:45:38;25.35;;;15.43;;
59424;SDS011;45231;44.826;20.312;2023-05-19T07:48:05;27.33;;;16.10;;
59424;SDS011;45231;44.826;20.312;2023-05-19T07:52:57;21.88;;;13.75;;
59424;SDS011;45231;44.826;20.312;2023-05-19T07:55:23;23.27;;;14.90;;
59424;SDS011;45231;44.826;20.312;2023-05-19T07:57:50;22.60;;;14.65;;
59424;SDS011;45231;44.826;20.312;2023-05-19T08:00:16;20.48;;;13.73;;
59424;SDS011;45231;44.826;20.312;2023-05-19T08:02:43;23.48;;;14.15;;
59424;SDS011;45231;44.826;20.312;2023-05-19T08:07:35;24.63;;;15.25;;
59424;SDS011;45231;44.826;20.312;2023-05-19T08:10:02;24.10;;;14.68;;
59424;SDS011;45231;44.826;20.312;2023-05-19T08:12:28;22.30;;;15.00;;
59424;SDS011;45231;44.826;20.312;2023-05-19T08:14:54;23.45;;;15.30;;
59424;SDS011;45231;44.826;20.312;2023-05-19T08:17:20;22.02;;;14.90;;
59424;SDS011;45231;44.826;20.312;2023-05-19T08:19:47;22.80;;;15.20;;
59424;SDS011;45231;44.826;20.312;2023-05-19T08:22:13;21.60;;;13.95;;
59424;SDS011;45231;44.826;20.312;2023-05-19T08:24:39;24.40;;;14.65;;
59424;SDS011;45231;44.826;20.312;2023-05-19T08:27:07;24.85;;;15.93;;
59424;SDS011;45231;44.826;20.312;2023-05-19T08:29:33;25.83;;;15.55;;
59424;SDS011;45231;44.826;20.312;2023-05-19T08:31:59;19.35;;;12.85;;
59424;SDS011;45231;44.826;20.312;2023-05-19T08:34:26;22.35;;;14.52;;
59424;SDS011;45231;44.826;20.312;2023-05-19T08:36:52;22.90;;;14.52;;
59424;SDS011;45231;44.826;20.312;2023-05-19T08:39:21;23.27;;;15.07;;
59424;SDS011;45231;44.826;20.312;2023-05-19T08:41:51;21.23;;;13.40;;
59424;SDS011;45231;44.826;20.312;2023-05-19T08:44:17;21.58;;;13.15;;
59424;SDS011;45231;44.826;20.312;2023-05-19T08:46:44;19.67;;;12.27;;
59424;SDS011;45231;44.826;20.312;2023-05-19T08:49:12;19.50;;;12.30;;
59424;SDS011;45231;44.826;20.312;2023-05-19T08:51:49;24.42;;;13.43;;
59424;SDS011;45231;44.826;20.312;2023-05-19T08:56:44;21.55;;;11.93;;
59424;SDS011;45231;44.826;20.312;2023-05-19T08:59:12;16.85;;;11.25;;
59424;SDS011;45231;44.826;20.312;2023-05-19T09:01:41;19.02;;;11.80;;
59424;SDS011;45231;44.826;20.312;2023-05-19T09:04:10;19.30;;;11.48;;
59424;SDS011;45231;44.826;20.312;2023-05-19T09:06:36;20.10;;;11.98;;
59424;SDS011;45231;44.826;20.312;2023-05-19T09:09:05;20.83;;;12.52;;
59424;SDS011;45231;44.826;20.312;2023-05-19T09:11:32;20.70;;;12.55;;
59424;SDS011;45231;44.826;20.312;2023-05-19T09:13:59;19.58;;;13.07;;
59424;SDS011;45231;44.826;20.312;2023-05-19T09:16:25;21.25;;;13.77;;
59424;SDS011;45231;44.826;20.312;2023-05-19T09:18:52;19.02;;;12.43;;
59424;SDS011;45231;44.826;20.312;2023-05-19T09:21:32;20.73;;;12.75;;
59424;SDS011;45231;44.826;20.312;2023-05-19T09:24:06;16.38;;;11.48;;
59424;SDS011;45231;44.826;20.312;2023-05-19T09:26:39;17.90;;;11.50;;
59424;SDS011;45231;44.826;20.312;2023-05-19T09:31:38;15.73;;;10.68;;
59424;SDS011;45231;44.826;20.312;2023-05-19T09:34:10;15.80;;;10.45;;
59424;SDS011;45231;44.826;20.312;2023-05-19T09:36:37;16.05;;;11.38;;
59424;SDS011;45231;44.826;20.312;2023-05-19T09:39:16;14.35;;;10.20;;
59424;SDS011;45231;44.826;20.312;2023-05-19T09:41:43;14.45;;;9.80;;
59424;SDS011;45231;44.826;20.312;2023-05-19T09:46:51;15.65;;;11.88;;
59424;SDS011;45231;44.826;20.312;2023-05-19T09:49:20;15.77;;;10.30;;
59424;SDS011;45231;44.826;20.312;2023-05-19T09:51:50;15.98;;;10.68;;
59424;SDS011;45231;44.826;20.312;2023-05-19T09:54:16;15.38;;;10.85;;
59424;SDS011;45231;44.826;20.312;2023-05-19T09:56:42;15.43;;;10.10;;
59424;SDS011;45231;44.826;20.312;2023-05-19T09:59:08;14.48;;;9.63;;
59424;SDS011;45231;44.826;20.312;2023-05-19T10:01:35;16.25;;;9.95;;
59424;SDS011;45231;44.826;20.312;2023-05-19T10:04:04;12.93;;;9.55;;
59424;SDS011;45231;44.826;20.312;2023-05-19T10:06:30;13.13;;;9.77;;
59424;SDS011;45231;44.826;20.312;2023-05-19T10:11:22;16.50;;;11.23;;
59424;SDS011;45231;44.826;20.312;2023-05-19T10:13:49;15.40;;;11.18;;
59424;SDS011;45231;44.826;20.312;2023-05-19T10:16:16;12.95;;;9.93;;
59424;SDS011;45231;44.826;20.312;2023-05-19T10:18:43;12.93;;;9.07;;
59424;SDS011;45231;44.826;20.312;2023-05-19T10:21:09;11.65;;;9.20;;
59424;SDS011;45231;44.826;20.312;2023-05-19T10:23:37;14.43;;;9.85;;
59424;SDS011;45231;44.826;20.312;2023-05-19T10:28:33;14.05;;;9.80;;
59424;SDS011;45231;44.826;20.312;2023-05-19T10:31:00;13.35;;;9.20;;
59424;SDS011;45231;44.826;20.312;2023-05-19T10:34:04;12.40;;;9.68;;
59424;SDS011;45231;44.826;20.312;2023-05-19T10:39:09;11.18;;;8.20;;
59424;SDS011;45231;44.826;20.312;2023-05-19T10:41:45;11.27;;;8.30;;
59424;SDS011;45231;44.826;20.312;2023-05-19T10:44:36;12.07;;;8.80;;
59424;SDS011;45231;44.826;20.312;2023-05-19T10:46:58;10.43;;;7.45;;
59424;SDS011;45231;44.826;20.312;2023-05-19T10:49:24;11.00;;;8.38;;
59424;SDS011;45231;44.826;20.312;2023-05-19T10:51:50;12.85;;;9.77;;
59424;SDS011;45231;44.826;20.312;2023-05-19T10:54:17;12.90;;;9.93;;
59424;SDS011;45231;44.826;20.312;2023-05-19T10:57:03;12.48;;;9.23;;
59424;SDS011;45231;44.826;20.312;2023-05-19T10:59:33;11.60;;;8.02;;
59424;SDS011;45231;44.826;20.312;2023-05-19T11:02:05;11.23;;;7.85;;
59424;SDS011;45231;44.826;20.312;2023-05-19T11:04:38;9.98;;;7.90;;
59424;SDS011;45231;44.826;20.312;2023-05-19T11:07:07;11.38;;;8.93;;
59424;SDS011;45231;44.826;20.312;2023-05-19T11:09:39;11.10;;;8.13;;
59424;SDS011;45231;44.826;20.312;2023-05-19T11:12:05;11.13;;;8.57;;
59424;SDS011;45231;44.826;20.312;2023-05-19T11:16:58;10.63;;;7.50;;
59424;SDS011;45231;44.826;20.312;2023-05-19T11:19:28;10.10;;;7.68;;
59424;SDS011;45231;44.826;20.312;2023-05-19T11:21:55;11.32;;;7.97;;
59424;SDS011;45231;44.826;20.312;2023-05-19T11:24:37;11.38;;;8.05;;
59424;SDS011;45231;44.826;20.312;2023-05-19T11:29:46;11.55;;;8.07;;
59424;SDS011;45231;44.826;20.312;2023-05-19T11:32:12;13.00;;;9.88;;
59424;SDS011;45231;44.826;20.312;2023-05-19T11:34:38;13.25;;;9.75;;
59424;SDS011;45231;44.826;20.312;2023-05-19T11:37:05;11.13;;;8.70;;
59424;SDS011;45231;44.826;20.312;2023-05-19T11:39:32;12.05;;;9.00;;
59424;SDS011;45231;44.826;20.312;2023-05-19T11:44:24;12.60;;;9.25;;
59424;SDS011;45231;44.826;20.312;2023-05-19T11:46:50;12.75;;;8.70;;
59424;SDS011;45231;44.826;20.312;2023-05-19T11:49:16;12.15;;;8.85;;
59424;SDS011;45231;44.826;20.312;2023-05-19T11:51:43;12.23;;;9.15;;
59424;SDS011;45231;44.826;20.312;2023-05-19T11:54:09;13.02;;;9.75;;
59424;SDS011;45231;44.826;20.312;2023-05-19T11:56:42;12.77;;;7.95;;
59424;SDS011;45231;44.826;20.312;2023-05-19T11:59:08;10.70;;;8.48;;
59424;SDS011;45231;44.826;20.312;2023-05-19T12:01:34;12.20;;;9.15;;
59424;SDS011;45231;44.826;20.312;2023-05-19T12:06:29;10.70;;;8.57;;
59424;SDS011;45231;44.826;20.312;2023-05-19T12:08:55;13.52;;;8.90;;
59424;SDS011;45231;44.826;20.312;2023-05-19T12:11:23;10.55;;;8.35;;
59424;SDS011;45231;44.826;20.312;2023-05-19T12:16:19;14.13;;;8.93;;
59424;SDS011;45231;44.826;20.312;2023-05-19T12:18:45;12.32;;;8.55;;
59424;SDS011;45231;44.826;20.312;2023-05-19T12:21:11;12.82;;;8.60;;
59424;SDS011;45231;44.826;20.312;2023-05-19T12:26:04;11.47;;;8.43;;
59424;SDS011;45231;44.826;20.312;2023-05-19T12:28:30;13.30;;;8.65;;
59424;SDS011;45231;44.826;20.312;2023-05-19T12:30:56;9.18;;;7.25;;
59424;SDS011;45231;44.826;20.312;2023-05-19T12:33:23;10.98;;;8.48;;
59424;SDS011;45231;44.826;20.312;2023-05-19T12:35:49;12.30;;;9.15;;
59424;SDS011;45231;44.826;20.312;2023-05-19T12:38:15;10.40;;;8.07;;
59424;SDS011;45231;44.826;20.312;2023-05-19T12:40:43;10.50;;;7.75;;
59424;SDS011;45231;44.826;20.312;2023-05-19T12:43:19;11.30;;;8.77;;
59424;SDS011;45231;44.826;20.312;2023-05-19T12:45:46;11.75;;;8.80;;
59424;SDS011;45231;44.826;20.312;2023-05-19T12:48:12;11.48;;;8.50;;
59424;SDS011;45231;44.826;20.312;2023-05-19T12:50:40;12.75;;;10.60;;
59424;SDS011;45231;44.826;20.312;2023-05-19T12:53:07;13.88;;;10.90;;
59424;SDS011;45231;44.826;20.312;2023-05-19T12:55:37;20.63;;;9.48;;
59424;SDS011;45231;44.826;20.312;2023-05-19T12:58:05;15.05;;;9.30;;
59424;SDS011;45231;44.826;20.312;2023-05-19T13:00:32;11.90;;;8.52;;
59424;SDS011;45231;44.826;20.312;2023-05-19T13:05:36;11.32;;;9.13;;
59424;SDS011;45231;44.826;20.312;2023-05-19T13:08:09;10.93;;;8.57;;
59424;SDS011;45231;44.826;20.312;2023-05-19T13:10:36;11.85;;;8.70;;
59424;SDS011;45231;44.826;20.312;2023-05-19T13:13:03;11.40;;;8.50;;
59424;SDS011;45231;44.826;20.312;2023-05-19T13:15:30;12.68;;;10.10;;
59424;SDS011;45231;44.826;20.312;2023-05-19T13:17:58;12.98;;;9.80;;
59424;SDS011;45231;44.826;20.312;2023-05-19T13:20:25;13.15;;;9.95;;
59424;SDS011;45231;44.826;20.312;2023-05-19T13:22:51;13.73;;;9.30;;
59424;SDS011;45231;44.826;20.312;2023-05-19T13:25:17;12.57;;;9.40;;
59424;SDS011;45231;44.826;20.312;2023-05-19T13:30:13;10.57;;;8.85;;
59424;SDS011;45231;44.826;20.312;2023-05-19T13:32:42;12.15;;;9.05;;
59424;SDS011;45231;44.826;20.312;2023-05-19T13:35:08;15.30;;;9.93;;
59424;SDS011;45231;44.826;20.312;2023-05-19T13:37:35;12.00;;;10.00;;
59424;SDS011;45231;44.826;20.312;2023-05-19T13:40:01;15.65;;;11.75;;
59424;SDS011;45231;44.826;20.312;2023-05-19T13:42:27;12.55;;;10.65;;
59424;SDS011;45231;44.826;20.312;2023-05-19T13:44:54;14.25;;;11.23;;
59424;SDS011;45231;44.826;20.312;2023-05-19T13:47:23;18.48;;;11.43;;
59424;SDS011;45231;44.826;20.312;2023-05-19T13:49:50;11.93;;;9.77;;
59424;SDS011;45231;44.826;20.312;2023-05-19T13:52:16;12.60;;;8.98;;
59424;SDS011;45231;44.826;20.312;2023-05-19T13:54:42;12.63;;;9.27;;
59424;SDS011;45231;44.826;20.312;2023-05-19T13:57:08;13.35;;;8.68;;
59424;SDS011;45231;44.826;20.312;2023-05-19T13:59:34;13.48;;;9.07;;
59424;SDS011;45231;44.826;20.312;2023-05-19T14:02:00;12.27;;;8.25;;
59424;SDS011;45231;44.826;20.312;2023-05-19T14:04:27;12.77;;;8.68;;
59424;SDS011;45231;44.826;20.312;2023-05-19T14:06:53;11.63;;;8.10;;
59424;SDS011;45231;44.826;20.312;2023-05-19T14:11:46;11.27;;;9.52;;
59424;SDS011;45231;44.826;20.312;2023-05-19T14:14:12;12.90;;;9.82;;
59424;SDS011;45231;44.826;20.312;2023-05-19T14:16:41;14.40;;;10.95;;
59424;SDS011;45231;44.826;20.312;2023-05-19T14:19:07;14.93;;;12.05;;
59424;SDS011;45231;44.826;20.312;2023-05-19T14:24:00;17.85;;;12.57;;
59424;SDS011;45231;44.826;20.312;2023-05-19T14:26:26;14.73;;;12.27;;
59424;SDS011;45231;44.826;20.312;2023-05-19T14:28:52;15.18;;;12.38;;
59424;SDS011;45231;44.826;20.312;2023-05-19T14:31:20;16.83;;;12.23;;
59424;SDS011;45231;44.826;20.312;2023-05-19T14:33:46;14.48;;;11.77;;
59424;SDS011;45231;44.826;20.312;2023-05-19T14:36:13;14.93;;;12.45;;
59424;SDS011;45231;44.826;20.312;2023-05-19T14:38:39;17.50;;;12.02;;
59424;SDS011;45231;44.826;20.312;2023-05-19T14:41:05;17.35;;;11.88;;
59424;SDS011;45231;44.826;20.312;2023-05-19T14:45:57;18.30;;;13.02;;
59424;SDS011;45231;44.826;20.312;2023-05-19T14:48:23;17.77;;;13.88;;
59424;SDS011;45231;44.826;20.312;2023-05-19T14:50:49;17.52;;;14.07;;
59424;SDS011;45231;44.826;20.312;2023-05-19T14:53:15;14.27;;;12.68;;
59424;SDS011;45231;44.826;20.312;2023-05-19T14:55:42;15.82;;;12.90;;
59424;SDS011;45231;44.826;20.312;2023-05-19T15:00:34;17.63;;;14.55;;
59424;SDS011;45231;44.826;20.312;2023-05-19T15:03:00;16.98;;;14.52;;
59424;SDS011;45231;44.826;20.312;2023-05-19T15:05:26;19.85;;;15.23;;
59424;SDS011;45231;44.826;20.312;2023-05-19T15:07:52;17.13;;;14.02;;
59424;SDS011;45231;44.826;20.312;2023-05-19T15:10:18;19.52;;;13.35;;
59424;SDS011;45231;44.826;20.312;2023-05-19T15:15:10;18.08;;;13.18;;
59424;SDS011;45231;44.826;20.312;2023-05-19T15:20:03;15.82;;;12.00;;
59424;SDS011;45231;44.826;20.312;2023-05-19T15:22:29;15.18;;;12.20;;
59424;SDS011;45231;44.826;20.312;2023-05-19T15:24:55;15.15;;;12.85;;
59424;SDS011;45231;44.826;20.312;2023-05-19T15:27:21;15.60;;;12.60;;